Time;durP1;ratioP1;P1;durP2;ratioP2;P2;SDS_P1;SDS_P2;PMS_P1;PMS_P2;Temp;Humidity;BMP_temperature;BMP_pressure;BME280_temperature;BME280_humidity;BME280_pressure;Samples;Min_cycle;Max_cycle;Signal;HPM_P1;HPM_P2
2022/06/02 00:00:20;;;;;;;0.50;0.50;;;;;;;16.34;83.87;95477.69;4334576;32;20185;-60
2022/06/02 00:03:23;;;;;;;0.40;0.40;;;;;;;16.48;83.75;95483.56;4328402;32;20228;-60
2022/06/02 00:06:17;;;;;;;0.40;0.40;;;;;;;16.55;83.36;95487.63;4360355;32;20204;-60
2022/06/02 00:08:59;;;;;;;0.30;0.30;;;;;;;16.53;83.43;95492.53;4356851;32;20272;-60
2022/06/02 00:11:31;;;;;;;0.67;0.67;;;;;;;16.46;83.67;95493.84;4348087;32;20207;-60
2022/06/02 00:14:10;;;;;;;0.33;0.33;;;;;;;16.60;83.14;95498.94;4367230;32;20287;-60
2022/06/02 00:16:59;;;;;;;0.30;0.30;;;;;;;16.66;82.96;95492.28;4328769;32;20193;-60
2022/06/02 00:19:38;;;;;;;0.27;0.27;;;;;;;16.65;83.10;95500.66;4336854;32;20208;-60
2022/06/02 00:22:17;;;;;;;0.40;0.40;;;;;;;16.63;83.18;95500.16;4323264;32;20189;-60
2022/06/02 00:25:23;;;;;;;0.93;0.57;;;;;;;16.50;83.06;95500.09;4322661;32;20223;-60
2022/06/02 00:28:08;;;;;;;0.57;0.57;;;;;;;16.25;84.56;95508.31;4352327;32;20193;-61
2022/06/02 00:31:26;;;;;;;0.77;0.77;;;;;;;16.28;84.48;95507.66;4337600;32;20227;-59
2022/06/02 00:34:04;;;;;;;0.40;0.40;;;;;;;16.16;84.64;95508.38;4251804;33;20192;-60
2022/06/02 00:36:41;;;;;;;0.70;0.70;;;;;;;16.24;84.75;95528.94;4337269;32;20264;-60
2022/06/02 00:39:10;;;;;;;0.40;0.40;;;;;;;16.26;84.80;95524.03;4340698;32;20196;-60
2022/06/02 00:42:06;;;;;;;0.20;0.20;;;;;;;16.23;84.80;95534.63;4316205;32;20233;-60
2022/06/02 00:44:48;;;;;;;0.40;0.40;;;;;;;16.37;84.34;95535.19;4247808;33;20198;-60
2022/06/02 00:47:52;;;;;;;0.30;0.30;;;;;;;16.41;84.13;95538.78;4245534;33;20190;-60
2022/06/02 00:50:48;;;;;;;0.23;0.23;;;;;;;16.28;84.37;95526.41;4266385;33;20190;-60
2022/06/02 00:53:32;;;;;;;0.27;0.27;;;;;;;16.37;84.76;95527.16;4278683;33;20195;-60
2022/06/02 00:59:44;;;;;;;0.90;0.90;;;;;;;16.36;84.42;95531.72;4276980;33;20216;-60
2022/06/02 01:02:09;;;;;;;0.30;0.30;;;;;;;16.28;84.77;95535.22;4267937;33;20195;-64
2022/06/02 01:04:42;;;;;;;0.40;0.40;;;;;;;16.36;84.43;95537.06;4284074;33;20186;-60
2022/06/02 01:07:36;;;;;;;0.97;0.40;;;;;;;16.42;84.25;95534.97;4211288;33;20195;-61
2022/06/02 01:10:30;;;;;;;0.87;0.57;;;;;;;16.36;84.58;95547.00;4308800;32;20220;-60
2022/06/02 01:13:20;;;;;;;0.37;0.37;;;;;;;16.34;84.63;95547.31;4322293;32;20229;-60
2022/06/02 01:15:57;;;;;;;0.83;0.50;;;;;;;16.46;84.45;95542.03;4353623;32;20328;-60
2022/06/02 01:19:02;;;;;;;0.40;0.40;;;;;;;16.34;85.04;95536.63;4358381;32;20215;-60
2022/06/02 01:21:44;;;;;;;0.37;0.37;;;;;;;16.25;85.51;95543.91;4353458;32;20283;-60
2022/06/02 01:24:57;;;;;;;3.93;1.30;;;;;;;16.05;85.78;95549.97;4349650;32;20193;-62
2022/06/02 01:27:40;;;;;;;0.60;0.60;;;;;;;16.24;85.37;95546.91;4346131;32;20252;-60
2022/06/02 01:30:33;;;;;;;0.20;0.20;;;;;;;16.22;85.65;95544.53;4362282;32;20196;-60
2022/06/02 01:33:27;;;;;;;0.90;0.53;;;;;;;16.22;85.88;95549.87;4335523;32;20201;-60
2022/06/02 01:36:16;;;;;;;0.40;0.40;;;;;;;16.24;85.61;95552.25;4343313;32;20242;-60
2022/06/02 01:38:49;;;;;;;0.20;0.20;;;;;;;16.12;86.26;95551.06;4318342;32;20228;-60
2022/06/02 01:41:40;;;;;;;0.13;0.13;;;;;;;16.19;86.04;95547.88;4316629;32;20185;-60
2022/06/02 01:44:58;;;;;;;0.47;0.47;;;;;;;16.26;85.58;95542.78;4306269;32;20219;-60
2022/06/02 01:47:57;;;;;;;2.27;0.50;;;;;;;16.08;86.34;95546.66;4332645;32;20201;-60
2022/06/02 01:51:07;;;;;;;0.20;0.20;;;;;;;16.15;86.00;95546.94;4340306;32;20204;-60
2022/06/02 01:54:04;;;;;;;0.70;0.70;;;;;;;16.00;86.77;95550.19;4275903;33;20251;-61
2022/06/02 01:56:56;;;;;;;0.37;0.37;;;;;;;16.22;86.23;95538.41;4340041;32;20197;-60
2022/06/02 01:59:38;;;;;;;0.47;0.47;;;;;;;16.08;86.43;95530.59;4352517;32;20205;-60
2022/06/02 02:02:18;;;;;;;0.17;0.17;;;;;;;16.10;86.49;95534.53;4345898;32;20231;-60
2022/06/02 02:05:02;;;;;;;0.60;0.60;;;;;;;16.23;85.62;95532.72;4331322;32;20235;-60
2022/06/02 02:08:05;;;;;;;1.00;1.00;;;;;;;16.13;85.61;95533.87;4345516;32;20231;-60
2022/06/02 02:10:58;;;;;;;0.20;0.20;;;;;;;15.87;85.92;95532.44;4323025;32;20201;-60
2022/06/02 02:13:52;;;;;;;0.50;0.50;;;;;;;15.97;86.66;95535.56;4321356;32;20209;-61
2022/06/02 02:16:55;;;;;;;0.37;0.37;;;;;;;16.17;85.93;95539.38;4329804;32;20215;-60
2022/06/02 02:20:11;;;;;;;0.53;0.53;;;;;;;16.23;85.87;95532.72;4329888;32;20185;-60
2022/06/02 02:23:06;;;;;;;0.20;0.20;;;;;;;16.15;84.88;95549.63;4283589;33;20213;-60
2022/06/02 02:25:57;;;;;;;0.27;0.27;;;;;;;16.22;85.29;95547.22;4274365;33;20194;-60
2022/06/02 02:29:12;;;;;;;1.70;0.63;;;;;;;16.15;85.55;95557.66;4247139;33;20258;-60
2022/06/02 02:32:30;;;;;;;0.47;0.47;;;;;;;16.14;85.17;95567.59;4278515;33;20207;-60
2022/06/02 02:35:23;;;;;;;0.10;0.10;;;;;;;16.13;85.33;95557.97;4287370;33;20214;-60
2022/06/02 02:38:08;;;;;;;0.20;0.20;;;;;;;16.22;85.39;95552.56;4273853;33;20199;-60
2022/06/02 02:40:45;;;;;;;0.30;0.30;;;;;;;16.31;84.92;95549.84;4275427;33;20238;-60
2022/06/02 02:43:27;;;;;;;0.60;0.60;;;;;;;16.30;84.89;95543.72;4244697;33;20214;-60
2022/06/02 02:46:01;;;;;;;0.40;0.40;;;;;;;16.22;84.72;95535.72;4302080;32;20228;-60
2022/06/02 02:48:56;;;;;;;0.30;0.30;;;;;;;16.13;85.54;95539.25;4351116;32;20259;-60
2022/06/02 02:52:02;;;;;;;0.20;0.20;;;;;;;16.15;85.54;95549.63;4336589;32;20205;-60
2022/06/02 02:54:51;;;;;;;0.83;0.83;;;;;;;16.28;85.37;95545.94;4327033;32;20282;-60
2022/06/02 02:57:47;;;;;;;0.97;0.57;;;;;;;16.29;85.05;95547.50;4343572;32;20241;-60
2022/06/02 03:00:59;;;;;;;0.57;0.57;;;;;;;16.08;86.08;95552.00;4329050;32;20185;-60
2022/06/02 03:03:46;;;;;;;0.60;0.60;;;;;;;16.11;86.01;95570.13;4345584;32;20204;-60
2022/06/02 03:06:26;;;;;;;0.33;0.33;;;;;;;15.95;86.12;95566.41;4348368;32;20197;-60
2022/06/02 03:09:24;;;;;;;0.50;0.50;;;;;;;16.01;86.03;95552.50;4357867;32;20188;-60
2022/06/02 03:12:17;;;;;;;0.30;0.30;;;;;;;15.82;87.25;95550.22;4344997;32;20228;-60
2022/06/02 03:15:19;;;;;;;0.23;0.23;;;;;;;15.81;87.36;95550.53;4331179;32;20211;-60
2022/06/02 03:18:05;;;;;;;0.13;0.13;;;;;;;15.74;87.40;95559.09;4328830;32;20185;-61
2022/06/02 03:21:06;;;;;;;0.77;0.50;;;;;;;15.94;86.88;95562.16;4351884;32;20247;-60
2022/06/02 03:24:06;;;;;;;0.47;0.47;;;;;;;15.93;86.92;95553.34;4348387;32;20204;-61
2022/06/02 03:27:02;;;;;;;0.47;0.37;;;;;;;15.98;86.85;95568.44;4328214;32;20357;-60
2022/06/02 03:29:48;;;;;;;0.40;0.40;;;;;;;15.97;86.62;95564.19;4358168;32;20363;-61
2022/06/02 03:32:52;;;;;;;0.53;0.53;;;;;;;16.04;86.24;95567.16;4364794;32;20203;-61
2022/06/02 03:36:09;;;;;;;0.40;0.40;;;;;;;16.00;86.58;95566.25;4347808;32;20192;-60
2022/06/02 03:39:03;;;;;;;0.60;0.60;;;;;;;15.94;86.65;95573.66;4297994;33;20194;-60
2022/06/02 03:41:44;;;;;;;0.47;0.47;;;;;;;15.91;87.11;95568.94;4316172;33;20203;-60
2022/06/02 03:44:22;;;;;;;0.70;0.70;;;;;;;15.81;86.99;95571.94;4276795;33;20222;-60
2022/06/02 03:47:35;;;;;;;0.30;0.30;;;;;;;15.64;88.09;95559.41;4323895;33;20260;-60
2022/06/02 03:50:36;;;;;;;0.30;0.30;;;;;;;15.84;87.57;95562.50;4298064;33;20278;-60
2022/06/02 03:53:39;;;;;;;0.10;0.10;;;;;;;16.04;86.95;95573.28;4297581;33;20201;-60
2022/06/02 03:56:32;;;;;;;0.27;0.27;;;;;;;16.05;87.05;95571.38;4294136;33;20194;-60
2022/06/02 03:59:31;;;;;;;0.20;0.20;;;;;;;16.02;86.66;95580.06;4305290;33;20269;-60
2022/06/02 04:02:09;;;;;;;0.20;0.20;;;;;;;16.07;86.65;95578.00;4329410;32;20247;-60
2022/06/02 04:05:08;;;;;;;0.33;0.33;;;;;;;16.05;86.95;95582.88;4356519;32;20196;-60
2022/06/02 04:07:51;;;;;;;0.40;0.40;;;;;;;16.07;86.75;95582.56;4352307;32;20194;-60
2022/06/02 04:10:51;;;;;;;0.50;0.50;;;;;;;16.12;86.79;95583.19;4354755;32;20282;-60
2022/06/02 04:13:59;;;;;;;0.60;0.60;;;;;;;16.16;86.80;95586.00;4351542;32;20235;-60
2022/06/02 04:17:01;;;;;;;0.10;0.10;;;;;;;16.21;86.40;95588.47;4368496;32;20199;-60
2022/06/02 04:22:56;;;;;;;0.30;0.30;;;;;;;15.91;87.26;95576.19;4346417;32;20208;-60
2022/06/02 04:26:10;;;;;;;0.40;0.40;;;;;;;15.97;87.93;95589.06;4327757;32;20257;-60
2022/06/02 04:29:30;;;;;;;0.67;0.67;;;;;;;16.06;87.49;95591.69;4336653;32;20193;-60
2022/06/02 04:32:15;;;;;;;0.50;0.50;;;;;;;16.01;87.55;95599.91;4310641;32;20257;-60
2022/06/02 04:35:06;;;;;;;6.03;0.50;;;;;;;15.87;87.83;95602.00;4340788;32;20197;-60
2022/06/02 04:37:54;;;;;;;0.70;0.70;;;;;;;16.01;87.89;95597.22;4343771;32;20229;-60
2022/06/02 04:40:55;;;;;;;0.50;0.50;;;;;;;15.87;88.17;95602.00;4344567;32;20261;-60
2022/06/02 04:44:07;;;;;;;2.30;1.10;;;;;;;16.00;87.68;95609.06;4325445;32;20218;-60
2022/06/02 04:47:10;;;;;;;2.57;0.67;;;;;;;16.04;87.19;95618.00;4338530;32;20204;-60
2022/06/02 04:49:54;;;;;;;0.50;0.50;;;;;;;16.09;87.91;95617.81;4330008;32;20201;-60
2022/06/02 04:53:01;;;;;;;0.27;0.27;;;;;;;16.22;86.89;95622.16;4325615;32;20215;-60
2022/06/02 04:56:07;;;;;;;0.57;0.57;;;;;;;16.18;86.07;95615.91;4293023;33;20202;-60
2022/06/02 04:59:11;;;;;;;0.67;0.60;;;;;;;16.22;86.54;95618.72;4273187;33;20199;-61
2022/06/02 05:02:18;;;;;;;0.53;0.53;;;;;;;16.15;86.61;95621.91;4337035;32;20313;-60
2022/06/02 05:05:24;;;;;;;1.73;1.07;;;;;;;16.35;86.54;95613.16;4335115;32;20247;-60
2022/06/02 05:08:05;;;;;;;0.60;0.60;;;;;;;16.35;85.80;95615.84;4321752;32;20198;-60
2022/06/02 05:11:02;;;;;;;0.60;0.60;;;;;;;16.28;85.77;95626.25;4336968;32;20208;-61
2022/06/02 05:13:40;;;;;;;0.73;0.70;;;;;;;16.30;86.12;95612.53;4328402;32;20260;-61
2022/06/02 05:16:20;;;;;;;0.53;0.53;;;;;;;16.31;85.56;95620.25;4334186;32;20227;-60
2022/06/02 05:19:24;;;;;;;2.27;1.07;;;;;;;16.28;85.82;95625.47;4331005;32;20197;-60
2022/06/02 05:22:25;;;;;;;0.63;0.63;;;;;;;16.24;85.34;95627.22;4331395;32;20199;-60
2022/06/02 05:25:29;;;;;;;0.83;0.83;;;;;;;16.23;84.06;95625.63;4339282;32;20188;-61
2022/06/02 05:28:32;;;;;;;0.50;0.50;;;;;;;16.18;84.79;95629.31;4315695;32;20189;-60
2022/06/02 05:31:35;;;;;;;0.53;0.53;;;;;;;16.25;84.36;95621.53;4318203;32;21650;-60
2022/06/02 05:34:09;;;;;;;0.67;0.67;;;;;;;16.31;84.01;95625.63;4314125;32;20209;-61
2022/06/02 05:37:02;;;;;;;0.40;0.40;;;;;;;16.31;84.33;95630.97;4293588;32;20236;-61
2022/06/02 05:39:56;;;;;;;0.40;0.40;;;;;;;16.45;83.86;95630.75;4353356;32;20273;-61
2022/06/02 05:43:11;;;;;;;0.57;0.57;;;;;;;16.49;83.25;95629.00;4324972;32;20212;-61
2022/06/02 05:46:14;;;;;;;0.70;0.70;;;;;;;16.46;82.50;95646.50;4311761;33;20201;-61
2022/06/02 05:48:48;;;;;;;0.57;0.57;;;;;;;16.42;82.79;95653.59;4305689;32;20189;-61
2022/06/02 05:51:53;;;;;;;0.90;0.90;;;;;;;16.43;82.68;95649.81;4316763;32;20260;-60
2022/06/02 05:54:50;;;;;;;0.33;0.33;;;;;;;16.38;82.76;95652.69;4325498;32;20250;-61
2022/06/02 05:57:43;;;;;;;0.30;0.30;;;;;;;16.39;83.05;95653.47;4324477;32;20189;-60
2022/06/02 06:00:31;;;;;;;2.10;1.03;;;;;;;16.54;84.14;95644.09;4335819;32;20197;-56
2022/06/02 06:03:22;;;;;;;0.73;0.73;;;;;;;16.97;82.16;95641.19;4335327;32;20229;-56
2022/06/02 06:06:31;;;;;;;2.80;0.83;;;;;;;17.33;79.71;95648.66;4329572;32;20243;-57
2022/06/02 06:09:18;;;;;;;0.67;0.67;;;;;;;17.61;77.88;95655.06;4282177;33;20242;-56
2022/06/02 06:12:16;;;;;;;1.03;1.03;;;;;;;17.90;76.08;95656.06;4324921;32;20198;-58
2022/06/02 06:14:59;;;;;;;11.77;3.47;;;;;;;17.92;76.08;95646.56;4326115;32;20188;-57
2022/06/02 06:17:47;;;;;;;1.93;1.83;;;;;;;18.19;78.04;95647.88;4340690;32;20190;-52
2022/06/02 06:20:52;;;;;;;2.10;2.00;;;;;;;18.37;78.40;95629.62;4336666;32;20181;-54
2022/06/02 06:23:40;;;;;;;5.10;2.27;;;;;;;18.40;76.97;95639.72;4339766;32;20193;-57
2022/06/02 06:26:52;;;;;;;8.40;1.20;;;;;;;18.53;74.74;95646.66;4348708;32;20197;-57
2022/06/02 06:29:49;;;;;;;0.93;0.93;;;;;;;18.53;73.81;95650.13;4312434;32;20207;-56
2022/06/02 06:32:31;;;;;;;1.03;1.03;;;;;;;18.59;73.26;95652.59;4339178;32;20194;-56
2022/06/02 06:35:35;;;;;;;2.20;0.70;;;;;;;18.59;73.08;95660.66;4347803;32;20297;-56
2022/06/02 06:38:34;;;;;;;0.60;0.60;;;;;;;18.58;72.55;95659.09;4339194;32;20200;-56
2022/06/02 06:41:33;;;;;;;1.10;1.10;;;;;;;18.61;72.37;95663.81;4348535;32;20362;-55
2022/06/02 06:44:08;;;;;;;1.17;1.07;;;;;;;18.79;71.64;95668.62;4332030;32;20206;-56
2022/06/02 06:46:40;;;;;;;0.70;0.70;;;;;;;18.71;72.13;95669.53;4328182;32;20193;-56
2022/06/02 06:49:42;;;;;;;0.70;0.70;;;;;;;18.75;71.42;95670.44;4332607;32;20192;-53
2022/06/02 06:52:29;;;;;;;1.43;1.33;;;;;;;18.72;71.97;95676.47;4330061;32;20213;-52
2022/06/02 06:55:03;;;;;;;0.97;0.97;;;;;;;18.71;71.87;95666.84;4344890;32;20213;-56
2022/06/02 06:58:01;;;;;;;1.00;1.00;;;;;;;18.77;71.33;95670.09;4345773;32;20238;-56
2022/06/02 07:00:39;;;;;;;0.80;0.80;;;;;;;18.80;71.58;95666.75;4334999;32;20184;-55
2022/06/02 07:03:17;;;;;;;1.07;0.50;;;;;;;18.85;70.68;95663.81;4353038;32;20206;-56
2022/06/02 07:06:06;;;;;;;0.80;0.80;;;;;;;18.84;70.82;95659.56;4331123;32;20253;-55
2022/06/02 07:08:40;;;;;;;1.70;1.30;;;;;;;18.94;70.36;95664.47;4320502;32;20284;-55
2022/06/02 07:14:17;;;;;;;1.33;1.30;;;;;;;19.06;72.72;95674.44;4302310;32;20300;-57
2022/06/02 07:16:50;;;;;;;1.97;1.63;;;;;;;19.19;73.83;95671.41;4314349;32;20197;-57
2022/06/02 07:19:32;;;;;;;0.73;0.73;;;;;;;19.10;73.35;95676.12;4308305;32;20203;-58
2022/06/02 07:22:39;;;;;;;24.67;1.73;;;;;;;19.16;74.66;95673.97;4340267;32;20421;-58
2022/06/02 07:25:29;;;;;;;1.67;1.07;;;;;;;19.35;74.79;95681.44;4341936;32;20239;-55
2022/06/02 07:28:42;;;;;;;1.00;1.00;;;;;;;19.49;73.48;95677.28;4333395;32;20189;-57
2022/06/02 07:31:17;;;;;;;0.70;0.70;;;;;;;19.47;73.29;95678.75;4252307;33;20207;-57
2022/06/02 07:33:47;;;;;;;0.87;0.87;;;;;;;19.58;73.09;95679.06;4244290;33;20249;-57
2022/06/02 07:36:39;;;;;;;0.57;0.57;;;;;;;19.65;72.56;95674.66;4265686;33;20195;-63
2022/06/02 07:39:43;;;;;;;0.73;0.73;;;;;;;19.52;70.42;95670.47;4285513;32;20204;-66
2022/06/02 07:42:33;;;;;;;1.27;1.17;;;;;;;19.32;70.06;95671.37;4314234;32;20189;-63
2022/06/02 07:45:31;;;;;;;0.70;0.70;;;;;;;19.13;71.66;95674.66;4331685;32;20291;-66
2022/06/02 07:48:26;;;;;;;0.90;0.90;;;;;;;19.10;71.90;95681.50;4336129;32;20186;-62
2022/06/02 07:51:29;;;;;;;0.80;0.80;;;;;;;19.17;71.65;95679.00;4334220;32;20240;-61
2022/06/02 07:54:31;;;;;;;0.70;0.70;;;;;;;18.99;70.31;95672.31;4346343;32;20185;-61
2022/06/02 07:57:33;;;;;;;2.17;1.30;;;;;;;18.78;71.10;95677.03;4357325;32;20200;-64
2022/06/02 08:00:20;;;;;;;1.97;1.60;;;;;;;18.81;70.89;95684.44;4358339;32;20338;-62
2022/06/02 08:03:19;;;;;;;1.67;1.57;;;;;;;18.75;72.21;95685.78;4339134;32;20243;-63
2022/06/02 08:06:10;;;;;;;0.93;0.93;;;;;;;18.79;71.54;95689.38;4349462;32;20208;-62
2022/06/02 08:08:50;;;;;;;2.13;1.60;;;;;;;18.70;73.28;95691.41;4340723;32;20197;-61
2022/06/02 08:11:58;;;;;;;1.63;1.63;;;;;;;18.69;73.52;95684.44;4327555;32;20201;-62
2022/06/02 08:15:39;;;;;;;4.30;1.63;;;;;;;18.55;72.72;95687.41;4320487;32;20220;-62
2022/06/02 08:18:38;;;;;;;1.87;1.77;;;;;;;18.43;72.74;95690.88;4324639;32;20180;-61
2022/06/02 08:28:55;;;;;;;0.80;0.80;;;;;;;18.63;70.95;95693.84;4329778;32;20197;-62
2022/06/02 08:31:48;;;;;;;1.33;1.30;;;;;;;18.55;72.03;95704.31;4339848;32;20193;-62
2022/06/02 08:34:46;;;;;;;0.90;0.90;;;;;;;18.67;72.16;95708.19;4353860;32;20214;-62
2022/06/02 08:37:26;;;;;;;1.43;1.43;;;;;;;18.83;72.47;95699.12;4356789;32;20252;-62
2022/06/02 08:40:32;;;;;;;2.33;2.13;;;;;;;18.98;71.36;95703.03;4363684;32;20196;-62
2022/06/02 08:43:31;;;;;;;1.27;1.23;;;;;;;19.05;72.17;95703.25;4353044;32;20228;-61
2022/06/02 08:46:30;;;;;;;2.07;1.17;;;;;;;18.95;73.70;95703.69;4348513;32;20220;-60
2022/06/02 08:49:14;;;;;;;10.00;1.57;;;;;;;19.00;72.45;95706.16;4349549;32;20265;-60
2022/06/02 08:52:18;;;;;;;1.20;1.20;;;;;;;19.12;71.93;95706.12;4343004;32;20189;-61
2022/06/02 08:55:28;;;;;;;0.70;0.70;;;;;;;18.86;73.19;95709.19;4355064;32;20204;-61
2022/06/02 08:58:23;;;;;;;1.00;1.00;;;;;;;18.81;71.87;95703.25;4347619;32;20192;-59
2022/06/02 09:01:27;;;;;;;1.40;1.40;;;;;;;18.87;71.41;95702.72;4343440;32;20215;-62
2022/06/02 09:04:21;;;;;;;1.90;1.80;;;;;;;18.99;69.57;95706.50;4364629;32;20250;-59
2022/06/02 09:07:12;;;;;;;0.90;0.90;;;;;;;19.04;69.58;95714.34;4351058;32;20177;-61
2022/06/02 09:09:59;;;;;;;0.73;0.73;;;;;;;19.17;70.48;95713.19;4363673;32;20203;-60
2022/06/02 09:13:01;;;;;;;1.13;1.03;;;;;;;19.27;71.28;95718.13;4350826;32;20207;-60
2022/06/02 09:16:17;;;;;;;1.93;1.83;;;;;;;19.42;69.04;95708.56;4358931;32;20251;-63
2022/06/02 09:19:25;;;;;;;1.90;1.70;;;;;;;19.41;68.78;95709.69;4328408;32;20197;-64
2022/06/02 09:22:03;;;;;;;1.27;1.17;;;;;;;19.47;69.31;95709.13;4333838;32;20189;-63
2022/06/02 09:25:01;;;;;;;1.07;1.07;;;;;;;19.41;69.18;95707.78;4296193;33;20201;-60
2022/06/02 09:27:55;;;;;;;9.27;1.73;;;;;;;19.43;68.94;95710.94;4309507;32;20237;-58
2022/06/02 09:30:54;;;;;;;1.13;1.13;;;;;;;19.48;68.81;95713.38;4295391;33;20204;-58
2022/06/02 09:33:59;;;;;;;1.13;1.13;;;;;;;19.49;68.28;95728.41;4317991;33;20205;-61
2022/06/02 09:36:59;;;;;;;1.37;1.27;;;;;;;19.59;68.00;95723.69;4318527;32;20206;-61
2022/06/02 09:40:03;;;;;;;1.30;1.30;;;;;;;19.58;68.38;95717.53;4291557;33;20202;-62
2022/06/02 09:43:01;;;;;;;1.37;1.37;;;;;;;19.58;68.12;95714.06;4288128;33;21956;-61
2022/06/02 09:45:43;;;;;;;0.90;0.90;;;;;;;19.45;67.05;95718.66;4245465;33;21544;-59
2022/06/02 09:48:47;;;;;;;0.50;0.50;;;;;;;19.37;68.61;95727.63;4206724;33;20196;-62
2022/06/02 09:51:58;;;;;;;1.07;1.07;;;;;;;19.43;67.28;95731.66;4254590;33;20195;-61
2022/06/02 09:54:53;;;;;;;0.90;0.90;;;;;;;19.53;67.05;95720.47;4225426;33;20253;-61
2022/06/02 09:57:57;;;;;;;2.20;2.07;;;;;;;19.44;67.67;95728.62;4270505;33;20232;-60
2022/06/02 10:00:45;;;;;;;1.83;1.73;;;;;;;19.44;69.18;95714.41;4314380;32;20229;-61
2022/06/02 10:03:41;;;;;;;0.73;0.73;;;;;;;19.47;69.05;95711.03;4293810;33;20205;-62
2022/06/02 10:06:20;;;;;;;1.00;1.00;;;;;;;19.62;68.48;95718.41;4321402;33;20253;-61
2022/06/02 10:09:26;;;;;;;0.90;0.90;;;;;;;19.79;67.88;95710.06;4313059;32;20211;-61
2022/06/02 10:15:55;;;;;;;2.73;2.63;;;;;;;19.92;67.96;95715.41;4292759;32;20204;-62
2022/06/02 10:18:50;;;;;;;1.57;1.47;;;;;;;19.98;67.19;95705.94;4329807;32;20251;-62
2022/06/02 10:21:31;;;;;;;1.97;1.87;;;;;;;20.05;66.70;95706.94;4308564;32;20202;-62
2022/06/02 10:24:18;;;;;;;1.50;1.50;;;;;;;20.13;66.64;95707.91;4296186;32;20193;-62
2022/06/02 10:27:22;;;;;;;1.40;1.40;;;;;;;20.08;66.22;95713.53;4342644;32;20252;-62
2022/06/02 10:30:07;;;;;;;2.07;1.93;;;;;;;20.00;66.69;95706.38;4342943;32;20230;-62
2022/06/02 10:33:14;;;;;;;0.80;0.80;;;;;;;20.14;66.38;95702.19;4352349;32;20313;-62
2022/06/02 10:36:17;;;;;;;1.10;1.10;;;;;;;20.19;65.61;95703.81;4283500;33;20194;-62
2022/06/02 10:39:31;;;;;;;1.37;1.37;;;;;;;20.24;65.22;95712.44;4290739;33;20193;-62
2022/06/02 10:42:42;;;;;;;1.40;1.40;;;;;;;20.30;64.15;95704.13;4294775;33;20225;-62
2022/06/02 10:46:13;;;;;;;1.63;1.53;;;;;;;20.39;64.37;95702.84;4262057;33;20182;-62
2022/06/02 10:49:11;;;;;;;1.57;1.33;;;;;;;20.56;64.58;95705.22;4261096;33;20194;-62
2022/06/02 10:52:00;;;;;;;1.37;1.37;;;;;;;20.62;62.71;95704.94;4282665;33;20194;-62
2022/06/02 10:54:57;;;;;;;0.90;0.90;;;;;;;20.67;62.32;95705.47;4270664;33;20189;-62
2022/06/02 10:57:45;;;;;;;1.00;1.00;;;;;;;20.78;61.92;95719.22;4287893;33;20250;-62
2022/06/02 11:00:56;;;;;;;1.33;1.33;;;;;;;20.68;61.46;95714.34;4279923;33;20213;-62
2022/06/02 11:03:59;;;;;;;1.07;1.07;;;;;;;20.53;62.20;95708.59;4291967;32;20209;-62
2022/06/02 11:06:43;;;;;;;3.37;1.83;;;;;;;20.49;64.26;95713.12;4277894;33;20256;-62
2022/06/02 11:09:47;;;;;;;0.83;0.83;;;;;;;20.46;63.47;95710.31;4344504;32;20192;-62
2022/06/02 11:12:35;;;;;;;1.33;1.33;;;;;;;20.53;63.55;95708.59;4310393;32;20185;-62
2022/06/02 11:15:28;;;;;;;2.93;1.30;;;;;;;20.59;62.68;95707.19;4291995;32;20280;-60
2022/06/02 11:18:02;;;;;;;1.67;1.67;;;;;;;20.54;62.82;95698.59;4315249;32;20186;-62
2022/06/02 11:21:06;;;;;;;1.33;1.30;;;;;;;20.54;62.49;95698.59;4354565;32;20298;-62
2022/06/02 11:24:03;;;;;;;1.20;0.87;;;;;;;20.57;61.82;95693.31;4335105;32;20198;-62
2022/06/02 11:26:55;;;;;;;0.60;0.60;;;;;;;20.76;61.53;95689.91;4321393;32;20216;-62
2022/06/02 11:29:59;;;;;;;2.30;2.10;;;;;;;20.81;61.92;95691.53;4332435;32;20250;-62
2022/06/02 11:33:02;;;;;;;1.43;1.43;;;;;;;20.88;61.27;95686.31;4347289;32;20296;-61
2022/06/02 11:35:46;;;;;;;1.23;1.03;;;;;;;20.89;62.28;95682.50;4327213;32;20252;-61
2022/06/02 11:38:42;;;;;;;1.00;1.00;;;;;;;21.09;61.10;95677.94;4330003;32;20216;-62
2022/06/02 11:41:32;;;;;;;0.50;0.50;;;;;;;21.12;61.01;95677.22;4316178;32;20190;-61
2022/06/02 11:44:13;;;;;;;2.00;1.77;;;;;;;20.97;60.82;95665.34;4322630;32;20232;-61
2022/06/02 11:47:07;;;;;;;0.70;0.70;;;;;;;20.92;61.73;95679.09;4322931;32;20229;-60
2022/06/02 11:50:09;;;;;;;0.70;0.70;;;;;;;20.93;61.74;95672.56;4342307;32;20189;-61
2022/06/02 11:53:12;;;;;;;1.17;0.87;;;;;;;20.91;60.67;95669.44;4272135;33;20204;-61
2022/06/02 11:56:13;;;;;;;0.97;0.97;;;;;;;20.96;62.61;95673.78;4269436;33;20273;-61
2022/06/02 11:58:55;;;;;;;0.87;0.87;;;;;;;21.01;61.20;95663.47;4318452;32;20208;-61
2022/06/02 12:01:40;;;;;;;1.30;1.30;;;;;;;21.04;60.57;95668.19;4317701;32;20288;-60
2022/06/02 12:04:25;;;;;;;1.13;1.13;;;;;;;21.11;60.67;95668.34;4303871;32;20252;-61
2022/06/02 12:07:27;;;;;;;1.67;1.57;;;;;;;21.12;60.39;95669.13;4333080;32;20192;-61
2022/06/02 12:10:32;;;;;;;0.93;0.93;;;;;;;21.08;60.87;95673.66;4347016;32;20204;-63
2022/06/02 12:13:35;;;;;;;1.40;1.40;;;;;;;21.12;60.10;95661.03;4328858;32;20392;-62
2022/06/02 12:16:28;;;;;;;2.13;1.87;;;;;;;21.12;61.83;95669.91;4272879;33;20266;-61
2022/06/02 12:19:25;;;;;;;0.73;0.73;;;;;;;21.12;60.47;95674.53;4251122;33;20205;-60
2022/06/02 12:22:13;;;;;;;1.43;1.43;;;;;;;21.04;61.46;95668.19;4292437;33;20191;-62
2022/06/02 12:25:17;;;;;;;1.40;1.40;;;;;;;21.06;60.81;95665.91;4308417;32;20204;-61
2022/06/02 12:28:20;;;;;;;0.90;0.90;;;;;;;21.17;60.78;95672.34;4329045;32;20208;-59
2022/06/02 12:31:25;;;;;;;1.00;1.00;;;;;;;21.11;60.62;95676.44;4315784;32;20185;-62
2022/06/02 12:34:09;;;;;;;1.07;1.07;;;;;;;20.90;61.66;95670.56;4324805;32;20220;-60
2022/06/02 12:36:53;;;;;;;1.53;1.43;;;;;;;20.94;60.91;95674.13;4336721;32;20208;-60
2022/06/02 12:40:16;;;;;;;0.90;0.90;;;;;;;20.89;60.86;95680.56;4344700;32;20259;-62
2022/06/02 12:43:18;;;;;;;0.70;0.70;;;;;;;20.83;61.55;95687.34;4312857;32;20220;-62
2022/06/02 12:46:23;;;;;;;2.53;1.60;;;;;;;20.81;60.91;95688.84;4340412;32;20224;-60
2022/06/02 12:49:25;;;;;;;1.03;1.03;;;;;;;20.65;61.97;95688.84;4348370;32;20232;-63
2022/06/02 12:52:17;;;;;;;0.30;0.30;;;;;;;20.54;63.41;95698.59;4353393;32;20196;-69
2022/06/02 12:55:22;;;;;;;0.67;0.67;;;;;;;20.56;62.86;95702.53;4352896;32;20188;-65
2022/06/02 12:58:25;;;;;;;0.73;0.73;;;;;;;20.46;64.65;95694.16;4329177;32;20272;-66
2022/06/02 13:01:09;;;;;;;0.77;0.77;;;;;;;20.50;62.11;95682.34;4349804;32;20197;-65
2022/06/02 13:04:16;;;;;;;1.83;1.20;;;;;;;20.39;63.72;95667.78;4350268;32;20189;-68
2022/06/02 13:07:18;;;;;;;1.27;1.23;;;;;;;20.55;64.11;95657.81;4340950;32;20273;-67
2022/06/02 13:10:06;;;;;;;0.93;0.93;;;;;;;20.68;65.45;95649.63;4348532;32;20232;-66
2022/06/02 13:13:12;;;;;;;0.60;0.60;;;;;;;20.67;66.77;95645.38;4334372;32;20307;-64
2022/06/02 13:16:06;;;;;;;1.13;1.10;;;;;;;20.81;65.64;95653.78;4333145;32;20203;-64
2022/06/02 13:18:51;;;;;;;1.90;0.93;;;;;;;20.95;64.55;95653.34;4347733;32;20267;-65
2022/06/02 13:21:50;;;;;;;0.83;0.83;;;;;;;21.03;63.41;95646.94;4336970;32;20227;-65
2022/06/02 13:25:04;;;;;;;0.73;0.73;;;;;;;20.97;62.78;95640.28;4316325;32;20213;-63
2022/06/02 13:28:10;;;;;;;1.07;1.07;;;;;;;20.80;62.57;95641.41;4268776;32;20213;-63
2022/06/02 13:30:54;;;;;;;1.03;1.03;;;;;;;20.88;62.79;95643.94;4283935;32;20299;-63
2022/06/02 13:33:58;;;;;;;0.93;0.93;;;;;;;20.83;63.08;95646.12;4315731;32;20225;-64
2022/06/02 13:37:25;;;;;;;1.27;1.27;;;;;;;20.91;62.68;95647.84;4312061;32;20212;-63
2022/06/02 13:40:36;;;;;;;0.53;0.53;;;;;;;21.00;61.31;95642.25;4258620;33;20242;-64
2022/06/02 13:43:07;;;;;;;0.87;0.87;;;;;;;21.08;61.83;95638.59;4260952;33;20297;-63
2022/06/02 13:46:11;;;;;;;0.73;0.70;;;;;;;20.86;62.45;95646.19;4279317;33;20195;-63
2022/06/02 13:48:58;;;;;;;0.70;0.70;;;;;;;21.08;62.41;95639.38;4292385;33;20219;-63
2022/06/02 13:52:10;;;;;;;2.57;0.77;;;;;;;21.21;61.48;95643.53;4299279;32;20337;-63
2022/06/02 13:58:30;;;;;;;0.50;0.50;;;;;;;21.12;61.49;95642.16;4305105;32;20259;-64
2022/06/02 14:01:16;;;;;;;0.77;0.77;;;;;;;21.09;61.80;95645.53;4336231;32;20193;-64
2022/06/02 14:04:13;;;;;;;0.90;0.90;;;;;;;21.14;61.25;95640.66;4319192;32;20214;-66
2022/06/02 14:06:46;;;;;;;0.57;0.57;;;;;;;21.16;60.67;95648.41;4325510;32;20260;-62